createdAt,value
2018-09-01T00:01:30.766Z,2.97
2018-09-01T00:03:59.624Z,3.00
2018-09-01T00:06:28.517Z,3.57
2018-09-01T00:08:58.284Z,2.63
2018-09-01T00:11:27.224Z,3.07
2018-09-01T00:13:56.129Z,2.10
2018-09-01T00:19:21.838Z,3.40
2018-09-01T00:21:50.784Z,2.77
2018-09-01T00:24:19.725Z,2.60
2018-09-01T00:26:48.575Z,3.53
2018-09-01T00:29:17.384Z,2.37
2018-09-01T00:31:46.199Z,3.60
2018-09-01T00:34:15.030Z,3.97
2018-09-01T00:36:43.909Z,2.67
2018-09-01T00:39:12.749Z,3.23
2018-09-01T00:41:41.596Z,4.03
2018-09-01T00:44:10.441Z,2.63
2018-09-01T00:46:43.422Z,2.70
2018-09-01T00:49:12.525Z,3.03
2018-09-01T00:51:41.504Z,3.03
2018-09-01T00:54:10.367Z,2.80
2018-09-01T00:56:39.205Z,3.50
2018-09-01T00:59:08.097Z,3.87
2018-09-01T01:01:37.001Z,3.50
2018-09-01T01:04:06.104Z,2.60
2018-09-01T01:06:34.893Z,2.30
2018-09-01T01:09:04.193Z,4.20
2018-09-01T01:11:32.995Z,3.23
2018-09-01T01:14:02.132Z,3.30
2018-09-01T01:16:30.996Z,2.97
2018-09-01T01:18:59.939Z,2.40
2018-09-01T01:21:28.856Z,2.63
2018-09-01T01:23:58.166Z,3.93
2018-09-01T01:26:26.964Z,2.70
2018-09-01T01:28:55.761Z,2.97
2018-09-01T01:31:24.739Z,3.30
2018-09-01T01:33:53.578Z,2.57
2018-09-01T01:36:22.408Z,4.10
2018-09-01T01:38:51.220Z,3.17
2018-09-01T01:41:20.172Z,3.37
2018-09-01T01:43:49.013Z,3.60
2018-09-01T01:46:17.853Z,3.40
2018-09-01T01:48:46.785Z,3.80
2018-09-01T01:51:15.592Z,3.20
2018-09-01T01:53:44.407Z,2.73
2018-09-01T01:56:13.226Z,3.67
2018-09-01T01:58:42.325Z,2.90
2018-09-01T02:01:11.148Z,2.87
2018-09-01T02:03:40.086Z,4.20
2018-09-01T02:06:08.910Z,4.17
2018-09-01T02:08:37.772Z,3.20
2018-09-01T02:11:06.809Z,3.90
2018-09-01T02:13:35.700Z,3.57
2018-09-01T02:16:04.527Z,4.33
2018-09-01T02:18:33.449Z,4.03
2018-09-01T02:21:02.863Z,4.23
2018-09-01T02:23:31.813Z,4.27
2018-09-01T02:26:00.756Z,4.90
2018-09-01T02:28:29.556Z,5.07
2018-09-01T02:30:58.405Z,4.27
2018-09-01T02:33:27.245Z,3.20
2018-09-01T02:35:56.223Z,4.57
2018-09-01T02:38:25.028Z,4.97
2018-09-01T02:40:53.907Z,3.93
2018-09-01T02:43:22.792Z,4.20
2018-09-01T02:45:51.689Z,3.53
2018-09-01T02:48:20.467Z,4.23
2018-09-01T02:50:49.369Z,2.53
2018-09-01T02:53:18.601Z,4.20
2018-09-01T02:55:47.449Z,3.97
2018-09-01T02:58:16.304Z,3.60
2018-09-01T03:00:45.212Z,3.80
2018-09-01T03:03:14.080Z,3.63
2018-09-01T03:05:43.012Z,2.60
2018-09-01T03:08:11.857Z,4.10
2018-09-01T03:10:40.745Z,4.07
2018-09-01T03:13:09.525Z,4.33
2018-09-01T03:15:38.368Z,3.87
2018-09-01T03:18:07.245Z,4.00
2018-09-01T03:20:36.077Z,4.17
2018-09-01T03:23:04.983Z,4.13
2018-09-01T03:25:33.800Z,3.60
2018-09-01T03:28:02.646Z,4.03
2018-09-01T03:30:31.533Z,3.00
2018-09-01T03:33:00.378Z,2.63
2018-09-01T03:35:29.368Z,3.37
2018-09-01T03:37:58.281Z,3.30
2018-09-01T03:40:27.125Z,4.67
2018-09-01T03:42:56.029Z,3.03
2018-09-01T03:45:24.852Z,2.97
2018-09-01T03:47:55.207Z,3.87
2018-09-01T03:50:23.997Z,3.27
2018-09-01T03:52:53.041Z,3.43
2018-09-01T03:55:21.897Z,3.43
2018-09-01T03:57:50.822Z,4.37
2018-09-01T04:00:19.902Z,3.70
2018-09-01T04:02:48.706Z,3.47
2018-09-01T04:05:17.489Z,2.60
2018-09-01T04:07:46.381Z,3.43
2018-09-01T04:10:15.222Z,3.60
2018-09-01T04:12:44.108Z,2.90
2018-09-01T04:15:13.048Z,2.97
2018-09-01T04:17:42.053Z,3.43
2018-09-01T04:20:10.914Z,4.20
2018-09-01T04:22:39.816Z,2.70
2018-09-01T04:25:08.770Z,4.33
2018-09-01T04:27:37.693Z,4.47
2018-09-01T04:30:06.808Z,5.03
2018-09-01T04:32:35.635Z,6.33
2018-09-01T04:35:04.634Z,6.30
2018-09-01T04:37:33.456Z,6.77
2018-09-01T04:40:02.322Z,5.23
2018-09-01T04:42:31.292Z,5.80
2018-09-01T04:45:00.128Z,3.87
2018-09-01T04:47:29.061Z,2.60
2018-09-01T04:49:57.942Z,5.40
2018-09-01T04:52:26.879Z,4.10
2018-09-01T04:54:55.748Z,4.40
2018-09-01T04:57:25.022Z,4.50
2018-09-01T04:59:53.917Z,4.00
2018-09-01T05:02:22.899Z,2.63
2018-09-01T05:04:51.742Z,5.03
2018-09-01T05:07:20.682Z,5.37
2018-09-01T05:09:49.583Z,4.03
2018-09-01T05:12:18.517Z,3.20
2018-09-01T05:14:47.600Z,3.80
2018-09-01T05:17:16.662Z,4.40
2018-09-01T05:19:45.501Z,2.33
2018-09-01T05:22:14.359Z,3.47
2018-09-01T05:24:43.554Z,4.73
2018-09-01T05:27:12.417Z,4.03
2018-09-01T05:29:41.328Z,2.63
2018-09-01T05:32:10.197Z,4.10
2018-09-01T05:34:39.289Z,1.90
2018-09-01T05:37:08.321Z,5.73
2018-09-01T05:39:37.281Z,4.63
2018-09-01T05:42:06.311Z,2.80
2018-09-01T05:44:35.158Z,2.97
2018-09-01T05:47:03.951Z,4.23
2018-09-01T05:49:32.781Z,4.03
2018-09-01T05:52:01.740Z,5.83
2018-09-01T05:54:31.501Z,4.80
2018-09-01T05:57:00.388Z,5.43
2018-09-01T05:59:29.190Z,5.50
2018-09-01T06:01:57.978Z,5.93
2018-09-01T06:04:26.884Z,3.10
2018-09-01T06:06:56.660Z,3.80
2018-09-01T06:09:25.502Z,6.10
2018-09-01T06:11:54.298Z,3.37
2018-09-01T06:14:23.192Z,5.60
2018-09-01T06:16:52.368Z,5.23
2018-09-01T06:19:21.325Z,5.80
2018-09-01T06:21:50.108Z,4.07
2018-09-01T06:24:19.209Z,4.13
2018-09-01T06:26:49.030Z,5.67
2018-09-01T06:29:20.031Z,6.67
2018-09-01T06:32:06.069Z,5.03
2018-09-01T06:34:35.009Z,7.10
2018-09-01T06:37:03.803Z,7.67
2018-09-01T06:39:32.753Z,7.70
2018-09-01T06:42:01.678Z,7.27
2018-09-01T06:44:30.795Z,7.07
2018-09-01T06:46:59.669Z,4.70
2018-09-01T06:49:28.462Z,5.67
2018-09-01T06:51:57.384Z,4.50
2018-09-01T06:54:26.210Z,5.30
2018-09-01T06:56:55.159Z,4.57
2018-09-01T06:59:24.004Z,4.20
2018-09-01T07:01:52.811Z,4.17
2018-09-01T07:04:21.830Z,4.80
2018-09-01T07:06:50.600Z,4.77
2018-09-01T07:09:19.553Z,4.47
2018-09-01T07:11:48.509Z,4.13
2018-09-01T07:14:17.491Z,4.37
2018-09-01T07:16:46.324Z,4.60
2018-09-01T07:19:15.142Z,4.40
2018-09-01T07:21:43.963Z,4.77
2018-09-01T07:24:12.795Z,4.00
2018-09-01T07:26:42.449Z,4.10
2018-09-01T07:29:11.333Z,3.83
2018-09-01T07:31:40.356Z,3.73
2018-09-01T07:34:09.311Z,4.47
2018-09-01T07:36:38.241Z,3.83
2018-09-01T07:39:07.684Z,3.93
2018-09-01T07:41:36.761Z,3.80
2018-09-01T07:44:05.734Z,3.40
2018-09-01T07:46:34.637Z,3.67
2018-09-01T07:49:03.578Z,4.40
2018-09-01T07:51:32.419Z,4.30
2018-09-01T07:54:01.277Z,3.87
2018-09-01T07:56:30.149Z,4.40
2018-09-01T07:58:59.117Z,3.60
2018-09-01T08:01:28.085Z,3.70
2018-09-01T08:03:57.029Z,3.03
2018-09-01T08:06:25.852Z,3.07
2018-09-01T08:08:54.878Z,3.40
2018-09-01T08:11:23.696Z,3.50
2018-09-01T08:13:52.661Z,3.00
2018-09-01T08:16:21.643Z,2.80
2018-09-01T08:18:50.831Z,3.13
2018-09-01T08:21:19.718Z,2.73
2018-09-01T08:23:48.536Z,2.43
2018-09-01T08:26:17.557Z,3.50
2018-09-01T08:28:46.485Z,3.17
2018-09-01T08:31:15.357Z,2.93
2018-09-01T08:33:44.272Z,2.73
2018-09-01T08:36:13.032Z,2.90
2018-09-01T08:38:41.814Z,3.00
2018-09-01T08:41:10.622Z,2.90
2018-09-01T08:43:39.574Z,3.13
2018-09-01T08:46:08.487Z,2.93
2018-09-01T08:48:37.732Z,3.70
2018-09-01T08:51:06.622Z,3.60
2018-09-01T08:53:35.450Z,3.43
2018-09-01T08:56:04.317Z,3.13
2018-09-01T08:58:33.170Z,3.20
2018-09-01T09:01:02.829Z,2.63
2018-09-01T09:03:31.692Z,3.17
2018-09-01T09:06:00.637Z,2.47
2018-09-01T09:08:30.437Z,2.57
2018-09-01T09:10:59.462Z,2.60
2018-09-01T09:13:28.693Z,2.30
2018-09-01T09:15:57.640Z,2.80
2018-09-01T09:18:26.488Z,3.03
2018-09-01T09:20:55.526Z,2.77
2018-09-01T09:23:24.601Z,2.50
2018-09-01T09:25:53.658Z,3.07
2018-09-01T09:28:22.599Z,2.70
2018-09-01T09:30:51.610Z,3.03
2018-09-01T09:33:20.798Z,3.17
2018-09-01T09:35:49.864Z,3.30
2018-09-01T09:38:18.808Z,2.57
2018-09-01T09:40:47.797Z,3.67
2018-09-01T09:43:16.968Z,2.80
2018-09-01T09:45:46.096Z,3.27
2018-09-01T09:48:15.068Z,2.63
2018-09-01T09:50:44.145Z,2.57
2018-09-01T09:53:13.054Z,2.20
2018-09-01T09:55:42.038Z,2.13
2018-09-01T09:58:10.889Z,2.33
2018-09-01T10:00:45.273Z,2.13
2018-09-01T10:03:14.238Z,2.20
2018-09-01T10:05:45.224Z,2.03
2018-09-01T10:08:14.497Z,2.60
2018-09-01T10:10:43.325Z,2.40
2018-09-01T10:13:12.352Z,2.30
2018-09-01T10:15:41.315Z,2.23
2018-09-01T10:18:10.419Z,2.93
2018-09-01T10:20:39.349Z,2.30
2018-09-01T10:23:08.706Z,2.37
2018-09-01T10:25:37.775Z,2.10
2018-09-01T10:28:06.575Z,2.17
2018-09-01T10:30:35.678Z,2.03
2018-09-01T10:33:04.647Z,2.40
2018-09-01T10:35:33.501Z,2.07
2018-09-01T10:38:02.510Z,2.23
2018-09-01T10:40:31.394Z,2.23
2018-09-01T10:43:00.293Z,1.97
2018-09-01T10:45:30.805Z,2.00
2018-09-01T10:47:59.914Z,2.17
2018-09-01T10:50:28.922Z,2.20
2018-09-01T10:52:58.147Z,1.90
2018-09-01T10:55:27.003Z,2.40
2018-09-01T10:57:55.857Z,2.03
2018-09-01T11:00:24.678Z,1.87
2018-09-01T11:02:53.605Z,1.70
2018-09-01T11:05:23.177Z,2.07
2018-09-01T11:07:52.057Z,1.80
2018-09-01T11:10:21.105Z,1.97
2018-09-01T11:12:50.001Z,1.60
2018-09-01T11:15:18.966Z,2.23
2018-09-01T11:17:47.930Z,1.70
2018-09-01T11:20:16.955Z,1.70
2018-09-01T11:22:45.711Z,2.00
2018-09-01T11:25:14.809Z,1.90
2018-09-01T11:27:43.891Z,2.03
2018-09-01T11:30:12.743Z,1.80
2018-09-01T11:32:41.663Z,1.80
2018-09-01T11:35:10.681Z,1.57
2018-09-01T11:37:39.585Z,1.90
2018-09-01T11:40:08.519Z,2.10
2018-09-01T11:42:37.578Z,1.70
2018-09-01T11:45:06.511Z,2.40
2018-09-01T11:47:40.415Z,1.80
2018-09-01T11:50:09.602Z,2.37
2018-09-01T11:52:38.528Z,1.70
2018-09-01T11:55:07.865Z,1.70
2018-09-01T11:57:36.772Z,1.97
2018-09-01T12:00:06.099Z,1.87
2018-09-01T12:02:34.908Z,1.97
2018-09-01T12:05:03.948Z,2.00
2018-09-01T12:07:33.249Z,1.70
2018-09-01T12:10:02.349Z,1.73
2018-09-01T12:12:31.192Z,2.07
2018-09-01T12:15:00.308Z,2.20
2018-09-01T12:17:29.279Z,1.97
2018-09-01T12:19:58.217Z,2.13
2018-09-01T12:22:27.179Z,1.90
2018-09-01T12:24:55.977Z,2.20
2018-09-01T12:27:25.357Z,2.20
2018-09-01T12:29:54.137Z,2.07
2018-09-01T12:32:23.261Z,1.93
2018-09-01T12:34:52.154Z,1.90
2018-09-01T12:37:21.240Z,2.40
2018-09-01T12:39:51.098Z,1.63
2018-09-01T12:42:21.947Z,1.93
2018-09-01T12:44:50.752Z,2.10
2018-09-01T12:47:19.549Z,1.87
2018-09-01T12:49:48.422Z,1.80
2018-09-01T12:52:17.394Z,1.93
2018-09-01T12:54:46.199Z,2.03
2018-09-01T12:57:15.136Z,1.77
2018-09-01T12:59:47.588Z,1.97
2018-09-01T13:02:19.573Z,2.10
2018-09-01T13:04:48.618Z,2.00
2018-09-01T13:07:17.668Z,1.93
2018-09-01T13:09:47.561Z,1.93
2018-09-01T13:12:17.723Z,2.00
2018-09-01T13:14:46.622Z,1.73
2018-09-01T13:17:15.401Z,1.87
2018-09-01T13:19:47.187Z,1.87
2018-09-01T13:22:15.935Z,2.13
2018-09-01T13:24:44.865Z,1.90
2018-09-01T13:27:13.709Z,2.17
2018-09-01T13:29:42.509Z,1.87
2018-09-01T13:32:11.569Z,2.03
2018-09-01T13:34:40.670Z,1.83
2018-09-01T13:37:09.497Z,2.17
2018-09-01T13:39:38.533Z,1.97
2018-09-01T13:42:07.458Z,2.10
2018-09-01T13:44:43.090Z,1.80
2018-09-01T13:47:11.947Z,1.93
2018-09-01T13:49:40.929Z,2.03
2018-09-01T13:52:09.821Z,2.60
2018-09-01T13:54:38.660Z,2.13
2018-09-01T13:57:07.666Z,2.50
2018-09-01T13:59:36.620Z,2.30
2018-09-01T14:02:05.684Z,2.20
2018-09-01T14:04:34.533Z,2.23
2018-09-01T14:07:03.578Z,2.00
2018-09-01T14:09:32.403Z,2.67
2018-09-01T14:12:01.913Z,2.07
2018-09-01T14:14:31.221Z,2.23
2018-09-01T14:16:59.997Z,2.10
2018-09-01T14:19:28.875Z,2.13
2018-09-01T14:21:57.682Z,2.30
2018-09-01T14:24:26.617Z,2.03
2018-09-01T14:26:55.447Z,2.57
2018-09-01T14:29:24.277Z,2.47
2018-09-01T14:31:53.400Z,2.20
2018-09-01T14:34:22.469Z,2.40
2018-09-01T14:36:51.353Z,2.40
2018-09-01T14:39:20.260Z,2.53
2018-09-01T14:41:49.131Z,2.60
2018-09-01T14:44:17.982Z,2.53
2018-09-01T14:46:46.977Z,2.53
2018-09-01T14:49:15.713Z,3.00
2018-09-01T14:51:44.583Z,2.70
2018-09-01T14:54:13.449Z,2.63
2018-09-01T14:56:42.338Z,2.50
2018-09-01T14:59:11.407Z,2.37
2018-09-01T15:01:40.254Z,2.60
2018-09-01T15:04:09.197Z,2.80
2018-09-01T15:06:38.770Z,2.40
2018-09-01T15:09:08.064Z,2.37
2018-09-01T15:11:36.886Z,2.63
2018-09-01T15:14:06.621Z,2.47
2018-09-01T15:16:35.478Z,2.10
2018-09-01T15:19:04.369Z,2.60
2018-09-01T15:21:34.349Z,2.40
2018-09-01T15:24:03.354Z,2.20
2018-09-01T15:26:32.305Z,2.30
2018-09-01T15:29:01.643Z,2.57
2018-09-01T15:31:30.610Z,2.20
2018-09-01T15:33:59.541Z,2.27
2018-09-01T15:36:28.373Z,2.40
2018-09-01T15:38:57.213Z,2.20
2018-09-01T15:41:26.032Z,2.60
2018-09-01T15:43:55.001Z,2.23
2018-09-01T15:46:23.966Z,2.30
2018-09-01T15:48:52.871Z,2.00
2018-09-01T15:51:21.932Z,2.20
2018-09-01T15:53:50.830Z,2.43
2018-09-01T15:56:20.055Z,2.33
2018-09-01T15:58:49.446Z,2.40
2018-09-01T16:01:18.477Z,2.20
2018-09-01T16:03:47.424Z,2.07
2018-09-01T16:06:16.166Z,2.33
2018-09-01T16:08:45.172Z,2.67
2018-09-01T16:11:14.032Z,2.53
2018-09-01T16:13:43.276Z,2.50
2018-09-01T16:16:12.145Z,2.33
2018-09-01T16:18:41.193Z,2.23
2018-09-01T16:21:10.065Z,2.20
2018-09-01T16:23:39.001Z,2.47
2018-09-01T16:26:08.248Z,2.23
2018-09-01T16:28:37.249Z,2.73
2018-09-01T16:31:06.449Z,1.93
2018-09-01T16:33:35.472Z,2.30
2018-09-01T16:36:04.478Z,2.20
2018-09-01T16:38:33.277Z,1.90
2018-09-01T16:41:02.727Z,2.23
2018-09-01T16:43:31.669Z,2.40
2018-09-01T16:46:00.909Z,2.50
2018-09-01T16:48:30.112Z,2.47
2018-09-01T16:50:59.169Z,2.23
2018-09-01T16:53:28.023Z,2.10
2018-09-01T16:55:56.985Z,2.50
2018-09-01T16:58:25.913Z,2.60
2018-09-01T17:00:54.862Z,2.70
2018-09-01T17:03:23.908Z,2.60
2018-09-01T17:05:52.967Z,2.30
2018-09-01T17:08:22.225Z,2.70
2018-09-01T17:10:51.141Z,2.30
2018-09-01T17:13:22.307Z,2.30
2018-09-01T17:15:51.497Z,2.23
2018-09-01T17:18:20.545Z,2.40
2018-09-01T17:20:49.535Z,2.60
2018-09-01T17:23:18.502Z,2.40
2018-09-01T17:25:47.443Z,2.33
2018-09-01T17:28:16.242Z,2.30
2018-09-01T17:30:45.264Z,2.43
2018-09-01T17:33:14.256Z,2.30
2018-09-01T17:35:43.225Z,2.60
2018-09-01T17:38:14.813Z,1.90
2018-09-01T17:40:44.194Z,2.60
2018-09-01T17:43:13.186Z,1.90
2018-09-01T17:45:42.171Z,2.47
2018-09-01T17:48:11.203Z,2.63
2018-09-01T17:50:40.531Z,2.70
2018-09-01T17:53:09.463Z,2.50
2018-09-01T17:55:38.336Z,2.60
2018-09-01T17:58:07.303Z,2.77
2018-09-01T18:00:36.201Z,2.40
2018-09-01T18:03:05.080Z,2.77
2018-09-01T18:05:33.908Z,2.90
2018-09-01T18:08:02.953Z,3.27
2018-09-01T18:10:31.995Z,3.37
2018-09-01T18:13:02.909Z,2.97
2018-09-01T18:15:32.192Z,3.33
2018-09-01T18:18:01.497Z,3.00
2018-09-01T18:20:30.585Z,3.30
2018-09-01T18:23:00.814Z,2.23
2018-09-01T18:25:30.268Z,2.73
2018-09-01T18:28:06.911Z,2.87
2018-09-01T18:33:39.368Z,3.33
2018-09-01T18:36:08.445Z,2.63
2018-09-01T18:38:37.381Z,2.93
2018-09-01T18:41:06.291Z,3.10
2018-09-01T18:43:35.321Z,3.03
2018-09-01T18:46:04.228Z,3.47
2018-09-01T18:48:33.037Z,3.23
2018-09-01T18:51:02.201Z,3.20
2018-09-01T18:53:31.014Z,4.13
2018-09-01T18:56:00.081Z,4.50
2018-09-01T18:58:29.771Z,3.93
2018-09-01T19:00:58.684Z,4.27
2018-09-01T19:03:27.711Z,3.53
2018-09-01T19:05:59.033Z,3.70
2018-09-01T19:08:28.308Z,3.80
2018-09-01T19:10:57.184Z,4.37
2018-09-01T19:13:26.091Z,3.20
2018-09-01T19:15:56.184Z,3.77
2018-09-01T19:18:25.677Z,4.03
2018-09-01T19:20:54.608Z,3.83
2018-09-01T19:23:23.640Z,4.27
2018-09-01T19:25:52.642Z,4.83
2018-09-01T19:28:21.494Z,4.40
2018-09-01T19:30:50.576Z,4.50
2018-09-01T19:33:19.561Z,5.67
2018-09-01T19:35:48.580Z,4.40
2018-09-01T19:38:17.617Z,5.37
2018-09-01T19:40:49.973Z,6.00
2018-09-01T19:43:20.736Z,8.10
2018-09-01T19:45:49.845Z,8.63
2018-09-01T19:48:23.023Z,7.43
2018-09-01T19:50:52.303Z,6.93
2018-09-01T19:53:21.272Z,9.13
2018-09-01T19:55:50.559Z,8.90
2018-09-01T19:58:19.853Z,9.33
2018-09-01T20:00:49.902Z,7.83
2018-09-01T20:03:20.892Z,9.70
2018-09-01T20:05:49.844Z,9.80
2018-09-01T20:08:20.063Z,7.57
2018-09-01T20:10:49.462Z,9.43
2018-09-01T20:13:18.590Z,7.70
2018-09-01T20:15:47.403Z,8.23
2018-09-01T20:18:17.200Z,8.20
2018-09-01T20:20:46.028Z,8.00
2018-09-01T20:23:19.021Z,8.97
2018-09-01T20:25:48.054Z,9.27
2018-09-01T20:28:17.022Z,9.20
2018-09-01T20:30:46.006Z,7.97
2018-09-01T20:33:15.364Z,7.80
2018-09-01T20:35:49.508Z,8.80
2018-09-01T20:38:18.839Z,8.53
2018-09-01T20:40:48.002Z,8.80
2018-09-01T20:43:17.043Z,8.53
2018-09-01T20:45:46.273Z,8.97
2018-09-01T20:48:36.594Z,8.33
2018-09-01T20:51:41.511Z,8.37
2018-09-01T20:54:48.148Z,7.77
2018-09-01T20:57:22.060Z,7.70
2018-09-01T20:59:54.261Z,7.80
2018-09-01T21:02:46.570Z,7.53
2018-09-01T21:05:31.643Z,7.17
2018-09-01T21:08:07.357Z,6.67
2018-09-01T21:10:36.490Z,6.73
2018-09-01T21:13:05.549Z,6.77
2018-09-01T21:15:35.354Z,6.53
2018-09-01T21:18:04.953Z,6.47
2018-09-01T21:20:34.996Z,6.60
2018-09-01T21:23:04.061Z,6.20
2018-09-01T21:25:33.236Z,5.77
2018-09-01T21:28:04.220Z,6.17
2018-09-01T21:31:12.696Z,5.80
2018-09-01T21:34:02.851Z,5.47
2018-09-01T21:36:32.009Z,5.60
2018-09-01T21:39:14.722Z,5.50
2018-09-01T21:41:56.015Z,6.17
2018-09-01T21:44:53.056Z,5.57
2018-09-01T21:47:33.595Z,6.00
2018-09-01T21:50:33.939Z,5.40
2018-09-01T21:56:39.925Z,5.00
2018-09-01T21:59:08.917Z,6.10
2018-09-01T22:01:37.965Z,6.00
2018-09-01T22:04:22.034Z,6.07
2018-09-01T22:07:06.889Z,5.43
2018-09-01T22:09:40.425Z,5.90
2018-09-01T22:12:09.417Z,5.10
2018-09-01T22:14:38.323Z,5.50
2018-09-01T22:17:07.209Z,5.53
2018-09-01T22:19:36.276Z,6.37
2018-09-01T22:22:05.483Z,6.60
2018-09-01T22:24:34.535Z,6.23
2018-09-01T22:27:09.048Z,5.03
2018-09-01T22:29:38.388Z,6.50
2018-09-01T22:32:09.024Z,6.07
2018-09-01T22:34:37.960Z,5.60
2018-09-01T22:37:07.789Z,5.97
2018-09-01T22:39:38.006Z,6.73
2018-09-01T22:42:07.661Z,5.80
2018-09-01T22:44:36.598Z,5.87
2018-09-01T22:47:08.301Z,6.83
2018-09-01T22:49:37.280Z,5.70
2018-09-01T22:52:06.212Z,6.73
2018-09-01T22:54:35.060Z,6.57
2018-09-01T22:57:03.882Z,6.77
2018-09-01T22:59:32.782Z,6.77
2018-09-01T23:02:01.804Z,6.97
2018-09-01T23:04:30.764Z,6.50
2018-09-01T23:06:59.773Z,6.27
2018-09-01T23:09:28.881Z,7.53
2018-09-01T23:11:57.770Z,7.43
2018-09-01T23:14:26.621Z,6.73
2018-09-01T23:16:55.464Z,7.40
2018-09-01T23:19:24.377Z,7.07
2018-09-01T23:21:56.970Z,6.80
2018-09-01T23:24:26.185Z,6.73
2018-09-01T23:26:54.991Z,8.20
2018-09-01T23:29:26.879Z,7.40
2018-09-01T23:31:57.717Z,7.47
2018-09-01T23:34:26.657Z,6.73
2018-09-01T23:36:59.380Z,5.47
2018-09-01T23:39:28.953Z,7.87
2018-09-01T23:41:57.811Z,6.27
2018-09-01T23:44:26.958Z,6.93
2018-09-01T23:46:57.076Z,8.20
2018-09-01T23:49:29.814Z,5.47
2018-09-01T23:52:00.114Z,6.63
2018-09-01T23:54:31.227Z,7.30
2018-09-01T23:57:00.436Z,5.53
2018-09-01T23:59:29.741Z,6.27
